Sainte-Therese, Canada
Current Conditions -  °F | °C
As of 12:00 AM on Saturday 22 Nov 2014 (Local Time) from CYMX Reporting Station
Broken Clouds Broken Clouds  
Wind Chill: 18°   Ceiling: 12000
Heat Index: 18°   Visibility: 25mi
Dew Point:   Wind: 3mph
Humidity: 63%   Direction: 240°WSW
Pressure: 30.29"   Gusts: NA
Location:  45.63°N, 73.85°W
Report Text: CYMX 220500Z 24003KT 200V270 25SM BKN120 M08/M14 A3029 RMK AC6 SLP262
Loading
Personal Weather Stations






























Interactive Weather Map New forecast layout! Learn more

10-Day Weather Forecast

Advertisements
Track Severe Weather on mobile